createdAt,value
2023-01-01T00:02:29.228Z,13.62
2023-01-01T00:05:00.400Z,13.57
2023-01-01T00:07:27.347Z,13.55
2023-01-01T00:10:12.958Z,13.59
2023-01-01T00:12:39.798Z,13.64
2023-01-01T00:15:07.226Z,13.63
2023-01-01T00:17:34.123Z,13.67
2023-01-01T00:20:00.950Z,13.69
2023-01-01T00:22:53.479Z,13.61
2023-01-01T00:25:14.782Z,13.53
2023-01-01T00:27:42.264Z,13.53
2023-01-01T00:30:10.328Z,13.60
2023-01-01T00:32:37.174Z,13.52
2023-01-01T00:35:05.036Z,13.63
2023-01-01T00:37:32.205Z,13.65
2023-01-01T00:39:59.169Z,13.66
2023-01-01T00:42:26.023Z,13.67
2023-01-01T00:44:52.908Z,13.70
2023-01-01T00:47:19.701Z,13.72
2023-01-01T00:49:46.496Z,13.67
2023-01-01T00:52:13.260Z,13.61
2023-01-01T00:54:40.166Z,13.60
2023-01-01T00:57:06.961Z,13.59
2023-01-01T00:59:33.827Z,13.67
2023-01-01T01:02:00.843Z,13.69
2023-01-01T01:04:27.939Z,13.71
2023-01-01T01:06:54.723Z,13.75
2023-01-01T01:09:21.639Z,13.68
2023-01-01T01:11:48.517Z,13.68
2023-01-01T01:14:15.421Z,13.72
2023-01-01T01:16:42.308Z,13.72
2023-01-01T01:19:14.815Z,13.76
2023-01-01T01:21:42.055Z,13.77
2023-01-01T01:24:10.448Z,13.78
2023-01-01T01:26:37.284Z,13.76
2023-01-01T01:29:04.732Z,13.75
2023-01-01T01:31:33.325Z,13.76
2023-01-01T01:34:00.358Z,13.69
2023-01-01T01:36:28.186Z,13.64
2023-01-01T01:38:55.553Z,13.65
2023-01-01T01:41:28.609Z,13.73
2023-01-01T01:44:07.676Z,13.80
2023-01-01T01:46:42.947Z,13.83
2023-01-01T01:49:27.275Z,13.82
2023-01-01T01:51:55.419Z,13.82
2023-01-01T01:54:24.521Z,13.85
2023-01-01T01:56:57.764Z,13.85
2023-01-01T01:59:27.398Z,13.79
2023-01-01T02:01:54.478Z,13.82
2023-01-01T02:04:22.119Z,13.83
2023-01-01T02:06:50.276Z,13.83
2023-01-01T02:09:17.394Z,13.80
2023-01-01T02:11:44.168Z,13.82
2023-01-01T02:14:11.082Z,13.79
2023-01-01T02:16:47.463Z,13.83
2023-01-01T02:19:43.877Z,13.71
2023-01-01T02:22:16.513Z,13.65
2023-01-01T02:24:58.639Z,13.65
2023-01-01T02:27:48.567Z,13.68
2023-01-01T02:30:16.881Z,13.67
2023-01-01T02:32:52.397Z,13.69
2023-01-01T02:35:38.756Z,13.69
2023-01-01T02:38:15.435Z,13.71
2023-01-01T02:40:56.928Z,13.66
2023-01-01T02:43:25.246Z,13.67
2023-01-01T02:49:04.674Z,13.71
2023-01-01T02:51:47.216Z,13.74
2023-01-01T02:54:20.090Z,13.77
2023-01-01T02:56:56.596Z,13.80
2023-01-01T02:59:48.200Z,13.80
2023-01-01T03:02:32.649Z,13.83
2023-01-01T03:05:08.813Z,13.81
2023-01-01T03:08:17.903Z,13.72
2023-01-01T03:10:50.827Z,13.71
2023-01-01T03:13:23.766Z,13.68
2023-01-01T03:16:29.495Z,13.58
2023-01-01T03:19:23.822Z,13.49
2023-01-01T03:22:08.244Z,13.40
2023-01-01T03:24:58.793Z,13.44
2023-01-01T03:27:34.375Z,13.43
2023-01-01T03:30:08.397Z,13.40
2023-01-01T03:32:59.776Z,13.39
2023-01-01T03:35:49.645Z,13.40
2023-01-01T03:39:07.621Z,13.48
2023-01-01T03:42:03.257Z,13.53
2023-01-01T03:44:38.539Z,13.59
2023-01-01T03:47:06.839Z,13.61
2023-01-01T03:49:34.646Z,13.63
2023-01-01T03:52:15.463Z,13.59
2023-01-01T03:55:04.184Z,13.58
2023-01-01T03:57:59.348Z,13.58
2023-01-01T04:00:32.047Z,13.52
2023-01-01T04:03:11.189Z,13.51
2023-01-01T04:05:41.591Z,13.48
2023-01-01T04:08:10.084Z,13.48
2023-01-01T04:10:42.401Z,13.47
2023-01-01T04:13:09.591Z,13.38
2023-01-01T04:15:36.722Z,13.36
2023-01-01T04:18:04.085Z,13.30
2023-01-01T04:20:31.392Z,13.30
2023-01-01T04:22:59.638Z,13.25
2023-01-01T04:25:26.942Z,13.20
2023-01-01T04:27:53.977Z,13.14
2023-01-01T04:30:22.770Z,13.15
2023-01-01T04:32:49.624Z,13.20
2023-01-01T04:35:16.638Z,13.27
2023-01-01T04:37:45.294Z,13.30
2023-01-01T04:40:13.311Z,13.32
2023-01-01T04:42:40.451Z,13.35
2023-01-01T04:45:07.949Z,13.36
2023-01-01T04:47:34.968Z,13.33
2023-01-01T04:50:01.850Z,13.29
2023-01-01T04:52:31.276Z,13.20
2023-01-01T04:54:58.104Z,13.11
2023-01-01T04:57:24.970Z,13.15
2023-01-01T04:59:51.727Z,13.16
2023-01-01T05:02:18.583Z,13.20
2023-01-01T05:04:45.473Z,13.20
2023-01-01T05:07:12.480Z,13.15
2023-01-01T05:09:39.244Z,13.13
2023-01-01T05:12:06.422Z,13.15
2023-01-01T05:14:33.779Z,13.17
2023-01-01T05:17:00.621Z,13.19
2023-01-01T05:19:27.415Z,13.17
2023-01-01T05:22:03.988Z,13.16
2023-01-01T05:24:36.510Z,13.22
2023-01-01T05:27:03.409Z,13.32
2023-01-01T05:29:30.230Z,13.37
2023-01-01T05:31:57.045Z,13.36
2023-01-01T05:36:58.231Z,13.39
2023-01-01T05:39:25.110Z,13.37
2023-01-01T05:41:52.020Z,13.39
2023-01-01T05:44:19.546Z,13.44
2023-01-01T05:46:46.484Z,13.41
2023-01-01T05:49:13.304Z,13.43
2023-01-01T05:54:06.444Z,13.31
2023-01-01T05:56:33.528Z,13.23
2023-01-01T05:59:01.882Z,13.25
2023-01-01T06:01:30.735Z,13.21
2023-01-01T06:04:00.134Z,13.23
2023-01-01T06:06:30.035Z,13.31
2023-01-01T06:08:59.260Z,13.32
2023-01-01T06:11:26.826Z,13.40
2023-01-01T06:13:55.197Z,13.41
2023-01-01T06:16:23.012Z,13.37
2023-01-01T06:18:49.901Z,13.40
2023-01-01T06:21:19.596Z,13.43
2023-01-01T06:23:47.327Z,13.43
2023-01-01T06:26:16.679Z,13.39
2023-01-01T06:28:44.117Z,13.44
2023-01-01T06:31:12.849Z,13.44
2023-01-01T06:33:39.899Z,13.40
2023-01-01T06:36:09.872Z,13.44
2023-01-01T06:38:42.983Z,13.46
2023-01-01T06:41:20.925Z,13.43
2023-01-01T06:43:48.612Z,13.40
2023-01-01T06:46:23.275Z,13.43
2023-01-01T06:48:53.888Z,13.41
2023-01-01T06:51:28.560Z,13.38
2023-01-01T06:53:59.092Z,13.33
2023-01-01T06:56:26.450Z,13.31
2023-01-01T06:58:53.232Z,13.35
2023-01-01T07:01:26.049Z,13.36
2023-01-01T07:04:04.951Z,13.28
2023-01-01T07:06:33.009Z,13.24
2023-01-01T07:09:00.123Z,13.27
2023-01-01T07:11:28.529Z,13.29
2023-01-01T07:13:55.518Z,13.32
2023-01-01T07:16:23.057Z,13.33
2023-01-01T07:18:50.794Z,13.27
2023-01-01T07:21:54.459Z,13.25
2023-01-01T07:24:21.876Z,13.22
2023-01-01T07:26:49.970Z,13.13
2023-01-01T07:29:16.842Z,13.11
2023-01-01T07:31:44.689Z,13.15
2023-01-01T07:34:16.127Z,13.15
2023-01-01T07:36:43.372Z,13.18
2023-01-01T07:39:10.924Z,13.25
2023-01-01T07:41:38.002Z,13.23
2023-01-01T07:44:04.955Z,13.32
2023-01-01T07:46:34.777Z,13.31
2023-01-01T07:49:01.812Z,13.33
2023-01-01T07:51:28.853Z,13.37
2023-01-01T07:53:59.282Z,13.40
2023-01-01T07:56:29.412Z,13.40
2023-01-01T07:58:56.350Z,13.47
2023-01-01T08:01:23.338Z,13.49
2023-01-01T08:03:53.381Z,13.48
2023-01-01T08:06:20.349Z,13.49
2023-01-01T08:08:47.190Z,13.51
2023-01-01T08:11:14.065Z,13.60
2023-01-01T08:13:40.894Z,13.59
2023-01-01T08:16:08.255Z,13.58
2023-01-01T08:18:35.258Z,13.50
2023-01-01T08:21:02.911Z,13.60
2023-01-01T08:23:30.150Z,13.60
2023-01-01T08:26:01.680Z,13.58
2023-01-01T08:28:29.632Z,13.55
2023-01-01T08:30:56.556Z,13.50
2023-01-01T08:33:25.161Z,13.47
2023-01-01T08:35:54.560Z,13.55
2023-01-01T08:38:21.628Z,13.58
2023-01-01T08:40:48.517Z,13.65
2023-01-01T08:43:15.381Z,13.69
2023-01-01T08:45:42.294Z,13.79
2023-01-01T08:48:09.462Z,13.88
2023-01-01T08:50:36.251Z,13.96
2023-01-01T08:53:03.922Z,14.05
2023-01-01T08:55:31.561Z,14.13
2023-01-01T08:57:58.507Z,14.21
2023-01-01T09:00:25.482Z,14.32
2023-01-01T09:02:52.545Z,14.49
2023-01-01T09:05:20.146Z,14.56
2023-01-01T09:07:47.063Z,14.59
2023-01-01T09:10:14.015Z,14.56
2023-01-01T09:12:40.985Z,14.67
2023-01-01T09:15:14.697Z,14.68
2023-01-01T09:17:41.545Z,14.72
2023-01-01T09:20:08.761Z,14.76
2023-01-01T09:22:35.642Z,14.78
2023-01-01T09:25:02.400Z,14.78
2023-01-01T09:27:29.403Z,14.76
2023-01-01T09:29:56.338Z,14.76
2023-01-01T09:32:24.085Z,14.78
2023-01-01T09:34:52.704Z,14.75
2023-01-01T09:37:19.924Z,14.74
2023-01-01T09:39:47.140Z,14.72
2023-01-01T09:42:35.718Z,14.72
2023-01-01T09:45:31.647Z,14.70
2023-01-01T09:48:09.571Z,14.73
2023-01-01T09:50:42.018Z,14.72
2023-01-01T09:53:23.903Z,14.75
2023-01-01T09:55:59.092Z,14.74
2023-01-01T09:58:33.734Z,14.76
2023-01-01T10:01:17.318Z,14.78
2023-01-01T10:04:15.682Z,14.77
2023-01-01T10:07:11.048Z,14.79
2023-01-01T10:10:02.921Z,14.83
2023-01-01T10:12:50.111Z,14.88
2023-01-01T10:15:23.768Z,14.95
2023-01-01T10:17:55.922Z,15.00
2023-01-01T10:20:32.227Z,15.09
2023-01-01T10:23:14.340Z,15.16
2023-01-01T10:25:43.280Z,15.24
2023-01-01T10:28:33.447Z,15.24
2023-01-01T10:31:23.808Z,15.27
2023-01-01T10:33:50.648Z,15.28
2023-01-01T10:36:19.928Z,15.41
2023-01-01T10:38:50.703Z,15.48
2023-01-01T10:41:20.024Z,15.53
2023-01-01T10:43:48.533Z,15.55
2023-01-01T10:46:29.587Z,15.50
2023-01-01T10:49:25.045Z,15.46
2023-01-01T10:51:54.703Z,15.50
2023-01-01T10:54:35.784Z,15.54
2023-01-01T10:57:20.779Z,15.57
2023-01-01T10:59:53.806Z,15.64
2023-01-01T11:02:27.130Z,15.73
2023-01-01T11:05:17.680Z,15.75
2023-01-01T11:07:48.257Z,15.80
2023-01-01T11:10:23.566Z,15.89
2023-01-01T11:13:06.988Z,15.94
2023-01-01T11:15:38.383Z,15.96
2023-01-01T11:18:12.304Z,15.89
2023-01-01T11:20:40.120Z,15.91
2023-01-01T11:23:31.626Z,15.87
2023-01-01T11:26:01.198Z,15.84
2023-01-01T11:28:31.849Z,15.84
2023-01-01T11:31:10.587Z,15.90
2023-01-01T11:33:44.910Z,15.87
2023-01-01T11:36:12.287Z,15.90
2023-01-01T11:38:39.786Z,15.91
2023-01-01T11:41:07.802Z,15.87
2023-01-01T11:43:40.733Z,15.89
2023-01-01T11:46:13.438Z,15.81
2023-01-01T11:48:43.972Z,15.83
2023-01-01T11:51:27.954Z,15.84
2023-01-01T11:54:10.089Z,15.84
2023-01-01T11:56:37.588Z,15.83
2023-01-01T11:59:14.350Z,15.83
2023-01-01T12:01:54.826Z,15.88
2023-01-01T12:04:44.057Z,15.84
2023-01-01T12:07:28.335Z,15.78
2023-01-01T12:10:02.398Z,15.79
2023-01-01T12:12:51.951Z,15.83
2023-01-01T12:15:30.546Z,15.78
2023-01-01T12:18:00.464Z,15.80
2023-01-01T12:20:39.333Z,15.80
2023-01-01T12:23:15.327Z,15.87
2023-01-01T12:25:49.422Z,15.83
2023-01-01T12:28:16.696Z,15.88
2023-01-01T12:31:07.507Z,15.86
2023-01-01T12:33:58.170Z,15.95
2023-01-01T12:36:46.848Z,16.07
2023-01-01T12:39:38.782Z,16.14
2023-01-01T12:42:17.563Z,16.24
2023-01-01T12:45:01.722Z,16.26
2023-01-01T12:47:41.017Z,16.22
2023-01-01T12:50:32.542Z,16.11
2023-01-01T12:53:17.768Z,16.11
2023-01-01T12:55:56.158Z,16.11
2023-01-01T12:58:50.645Z,16.10
2023-01-01T13:01:22.638Z,16.11
2023-01-01T13:03:56.859Z,16.03
2023-01-01T13:06:36.650Z,15.98
2023-01-01T13:09:15.421Z,15.87
2023-01-01T13:11:45.410Z,15.86
2023-01-01T13:14:19.207Z,15.80
2023-01-01T13:16:54.262Z,15.75
2023-01-01T13:19:34.598Z,15.70
2023-01-01T13:22:27.590Z,15.67
2023-01-01T13:25:11.181Z,15.67
2023-01-01T13:28:02.753Z,15.66
2023-01-01T13:30:35.639Z,15.72
2023-01-01T13:33:29.096Z,15.66
2023-01-01T13:36:14.271Z,15.59
2023-01-01T13:38:51.058Z,15.55
2023-01-01T13:41:35.887Z,15.55
2023-01-01T13:44:05.871Z,15.57
2023-01-01T13:46:42.068Z,15.55
2023-01-01T13:49:27.137Z,15.61
2023-01-01T13:52:21.376Z,15.64
2023-01-01T13:55:00.038Z,15.63
2023-01-01T13:57:44.839Z,15.65
2023-01-01T14:00:24.104Z,15.58
2023-01-01T14:03:00.760Z,15.59
2023-01-01T14:05:31.118Z,15.64
2023-01-01T14:07:58.090Z,15.67
2023-01-01T14:10:35.373Z,15.65
2023-01-01T14:13:08.621Z,15.65
2023-01-01T14:15:44.787Z,15.61
2023-01-01T14:18:15.459Z,15.62
2023-01-01T14:20:51.326Z,15.60
2023-01-01T14:23:36.000Z,15.60
2023-01-01T14:26:10.636Z,15.59
2023-01-01T14:28:38.973Z,15.65
2023-01-01T14:31:15.888Z,15.64
2023-01-01T14:33:44.895Z,15.66
2023-01-01T14:36:22.819Z,15.69
2023-01-01T14:38:54.704Z,15.53
2023-01-01T14:41:28.239Z,15.62
2023-01-01T14:44:04.842Z,15.55
2023-01-01T14:46:32.748Z,15.54
2023-01-01T14:49:10.181Z,15.57
2023-01-01T14:51:44.059Z,15.55
2023-01-01T14:54:18.561Z,15.57
2023-01-01T14:56:52.068Z,15.52
2023-01-01T14:59:33.780Z,15.47
2023-01-01T15:02:33.322Z,15.46
2023-01-01T15:05:27.720Z,15.44
2023-01-01T15:08:01.789Z,15.44
2023-01-01T15:10:31.196Z,15.43
2023-01-01T15:13:22.924Z,15.34
2023-01-01T15:16:18.379Z,15.28
2023-01-01T15:19:23.890Z,15.14
2023-01-01T15:21:51.015Z,15.29
2023-01-01T15:24:32.605Z,15.08
2023-01-01T15:27:40.813Z,15.17
2023-01-01T15:34:31.466Z,15.23
2023-01-01T15:37:19.633Z,15.24
2023-01-01T15:39:56.872Z,15.18
2023-01-01T15:42:41.287Z,15.11
2023-01-01T15:45:15.637Z,15.17
2023-01-01T16:05:20.553Z,15.00
2023-01-01T16:08:36.445Z,14.79
2023-01-01T16:11:20.243Z,14.68
2023-01-01T16:22:50.258Z,14.72
2023-01-01T16:25:20.541Z,14.74
2023-01-01T16:27:50.578Z,14.70
2023-01-01T16:30:17.477Z,14.60
2023-01-01T16:32:50.374Z,14.61
2023-01-01T16:35:18.005Z,14.56
2023-01-01T16:37:45.204Z,14.41
2023-01-01T16:40:12.792Z,14.52
2023-01-01T16:42:39.749Z,14.41
2023-01-01T16:45:08.161Z,14.30
2023-01-01T16:47:37.367Z,14.29
2023-01-01T16:50:04.964Z,14.14
2023-01-01T16:52:33.798Z,14.11
2023-01-01T16:55:04.263Z,14.15
2023-01-01T16:57:34.463Z,13.97
2023-01-01T17:00:01.889Z,14.06
2023-01-01T17:02:30.389Z,14.02
2023-01-01T17:04:57.935Z,13.80
2023-01-01T17:07:25.067Z,13.84
2023-01-01T17:09:52.517Z,13.76
2023-01-01T17:12:19.581Z,13.69
2023-01-01T17:14:48.231Z,13.44
2023-01-01T17:17:15.331Z,13.47
2023-01-01T17:19:42.467Z,13.66
2023-01-01T17:22:09.525Z,13.53
2023-01-01T17:24:44.059Z,13.56
2023-01-01T17:27:13.914Z,13.46
2023-01-01T17:29:40.943Z,13.33
2023-01-01T17:32:08.157Z,13.28
2023-01-01T17:34:35.224Z,12.99
2023-01-01T17:37:02.186Z,12.80
2023-01-01T17:39:29.234Z,12.87
2023-01-01T17:41:58.284Z,12.95
2023-01-01T17:44:35.470Z,13.01
2023-01-01T17:47:03.726Z,12.91
2023-01-01T17:49:31.703Z,12.99
2023-01-01T17:51:59.642Z,12.71
2023-01-01T17:54:27.297Z,12.86
2023-01-01T17:56:54.746Z,12.76
2023-01-01T17:59:22.116Z,12.66
2023-01-01T18:01:49.933Z,12.67
2023-01-01T18:04:17.236Z,12.54
2023-01-01T18:06:48.070Z,12.56
2023-01-01T18:09:22.641Z,12.68
2023-01-01T18:11:50.298Z,12.83
2023-01-01T18:14:21.065Z,12.81
2023-01-01T18:16:51.736Z,12.77
2023-01-01T18:19:20.119Z,12.96
2023-01-01T18:21:47.762Z,12.90
2023-01-01T18:24:18.080Z,12.67
2023-01-01T18:26:45.369Z,12.81
2023-01-01T18:29:12.483Z,12.91
2023-01-01T18:31:39.689Z,12.88
2023-01-01T18:34:07.142Z,12.86
2023-01-01T18:36:36.192Z,12.98
2023-01-01T18:39:27.530Z,12.88
2023-01-01T18:42:29.457Z,13.14
2023-01-01T18:45:28.300Z,13.12
2023-01-01T18:48:08.465Z,13.17
2023-01-01T18:50:36.797Z,12.95
2023-01-01T18:53:09.862Z,13.16
2023-01-01T18:55:40.091Z,12.95
2023-01-01T18:58:25.029Z,12.91
2023-01-01T19:00:55.067Z,12.72
2023-01-01T19:03:28.588Z,12.81
2023-01-01T19:05:57.807Z,12.72
2023-01-01T19:08:29.284Z,12.68
2023-01-01T19:11:03.790Z,12.74
2023-01-01T19:13:35.664Z,13.02
2023-01-01T19:16:13.084Z,13.03
2023-01-01T19:18:45.887Z,12.93
2023-01-01T19:21:22.517Z,13.06
2023-01-01T19:23:52.605Z,12.96
2023-01-01T19:26:29.473Z,13.18
2023-01-01T19:29:13.627Z,13.05
2023-01-01T19:31:40.902Z,12.96
2023-01-01T19:34:07.789Z,12.91
2023-01-01T19:36:34.813Z,12.93
2023-01-01T19:39:06.021Z,13.00
2023-01-01T19:41:35.119Z,13.09
2023-01-01T19:44:02.512Z,13.12
2023-01-01T19:46:29.692Z,13.10
2023-01-01T19:48:57.534Z,13.12
2023-01-01T19:51:25.253Z,13.29
2023-01-01T19:53:54.469Z,13.36
2023-01-01T19:56:22.285Z,13.18
2023-01-01T19:58:49.582Z,13.10
2023-01-01T20:01:17.176Z,13.14
2023-01-01T20:04:00.127Z,13.11
2023-01-01T20:06:30.677Z,13.13
2023-01-01T20:08:57.779Z,13.08
2023-01-01T20:11:28.504Z,13.03
2023-01-01T20:13:55.750Z,13.17
2023-01-01T20:16:22.830Z,13.06
2023-01-01T20:18:50.585Z,13.12
2023-01-01T20:21:36.224Z,13.31
2023-01-01T20:24:03.653Z,13.38
2023-01-01T20:26:30.856Z,13.20
2023-01-01T20:29:16.772Z,13.26
2023-01-01T20:31:44.273Z,13.34
2023-01-01T20:34:12.173Z,13.36
2023-01-01T20:36:58.077Z,13.36
2023-01-01T20:39:25.749Z,13.39
2023-01-01T20:41:53.180Z,13.39
2023-01-01T20:44:20.354Z,13.35
2023-01-01T20:46:48.400Z,13.35
2023-01-01T20:49:19.381Z,13.37
2023-01-01T20:51:48.122Z,13.33
2023-01-01T20:54:15.639Z,13.37
2023-01-01T20:56:43.040Z,13.35
2023-01-01T20:59:34.214Z,13.22
2023-01-01T21:02:00.356Z,13.38
2023-01-01T21:04:27.486Z,13.37
2023-01-01T21:06:54.546Z,13.40
2023-01-01T21:09:21.532Z,13.35
2023-01-01T21:11:48.728Z,13.34
2023-01-01T21:14:16.198Z,13.36
2023-01-01T21:16:44.603Z,13.36
2023-01-01T21:19:11.682Z,13.42
2023-01-01T21:22:07.187Z,13.46
2023-01-01T21:24:37.805Z,13.43
2023-01-01T21:27:07.998Z,13.46
2023-01-01T21:29:35.758Z,13.47
2023-01-01T21:32:30.489Z,13.37
2023-01-01T21:35:00.018Z,13.31
2023-01-01T21:37:48.063Z,13.30
2023-01-01T21:40:48.896Z,13.33
2023-01-01T21:43:28.763Z,13.38
2023-01-01T21:46:15.052Z,13.36
2023-01-01T21:48:58.463Z,13.32
2023-01-01T21:51:42.593Z,13.33
2023-01-01T21:54:09.539Z,13.34
2023-01-01T21:56:38.969Z,13.30
2023-01-01T21:59:30.122Z,13.30
2023-01-01T22:02:10.736Z,13.34
2023-01-01T22:04:45.218Z,13.37
2023-01-01T22:10:18.954Z,13.37
2023-01-01T22:12:47.057Z,13.37
2023-01-01T22:15:30.346Z,13.37
2023-01-01T22:18:12.291Z,13.40
2023-01-01T22:20:41.968Z,13.41
2023-01-01T22:23:32.272Z,13.42
2023-01-01T22:26:00.041Z,13.28
2023-01-01T22:28:46.714Z,13.31
2023-01-01T22:31:22.366Z,13.36
2023-01-01T22:33:51.573Z,13.42
2023-01-01T22:36:26.339Z,13.33
2023-01-01T22:38:56.129Z,13.32
2023-01-01T22:41:23.434Z,13.20
2023-01-01T22:44:02.351Z,13.16
2023-01-01T22:46:36.443Z,13.15
2023-01-01T22:49:13.427Z,13.18
2023-01-01T22:51:46.006Z,13.23
2023-01-01T22:54:13.061Z,13.24
2023-01-01T22:56:40.063Z,13.27
2023-01-01T22:59:09.601Z,13.37
2023-01-01T23:01:36.590Z,13.39
2023-01-01T23:04:04.219Z,13.33
2023-01-01T23:06:32.883Z,13.37
2023-01-01T23:09:00.331Z,13.40
2023-01-01T23:11:28.321Z,13.48
2023-01-01T23:14:13.897Z,13.55
2023-01-01T23:16:40.984Z,13.68
2023-01-01T23:19:08.289Z,13.73
2023-01-01T23:21:36.631Z,13.82
2023-01-01T23:24:12.027Z,13.92
2023-01-01T23:26:40.145Z,13.97
2023-01-01T23:29:09.460Z,14.00
2023-01-01T23:31:38.278Z,14.02
2023-01-01T23:34:05.503Z,14.02
2023-01-01T23:36:32.839Z,14.01
2023-01-01T23:39:00.134Z,14.01
2023-01-01T23:41:27.181Z,13.99
2023-01-01T23:43:54.532Z,13.94
2023-01-01T23:46:22.009Z,14.00
2023-01-01T23:48:50.058Z,13.99
2023-01-01T23:51:19.452Z,13.99
2023-01-01T23:53:46.775Z,14.02
2023-01-01T23:56:14.065Z,14.04
2023-01-01T23:58:41.329Z,14.04
